createdAt,value
2018-04-20T00:00:35.875Z,9.20
2018-04-20T00:03:05.043Z,8.70
2018-04-20T00:05:33.255Z,9.30
2018-04-20T00:08:02.215Z,8.57
2018-04-20T00:10:34.307Z,9.10
2018-04-20T00:13:03.592Z,8.93
2018-04-20T00:15:31.771Z,8.70
2018-04-20T00:18:00.007Z,8.93
2018-04-20T00:20:28.225Z,9.17
2018-04-20T00:22:56.423Z,8.83
2018-04-20T00:25:25.940Z,9.07
2018-04-20T00:27:54.558Z,8.77
2018-04-20T00:30:22.768Z,8.83
2018-04-20T00:32:51.042Z,9.10
2018-04-20T00:35:20.046Z,9.00
2018-04-20T00:37:49.003Z,9.00
2018-04-20T00:40:17.279Z,9.30
2018-04-20T00:42:45.535Z,9.07
2018-04-20T00:45:13.815Z,9.60
2018-04-20T00:47:42.752Z,9.03
2018-04-20T00:50:11.053Z,9.50
2018-04-20T00:52:39.254Z,9.30
2018-04-20T00:55:07.524Z,9.00
2018-04-20T00:57:35.827Z,9.33
2018-04-20T01:00:04.022Z,8.87
2018-04-20T01:02:33.484Z,9.13
2018-04-20T01:05:01.778Z,9.40
2018-04-20T01:07:29.955Z,9.17
2018-04-20T01:09:58.191Z,9.60
2018-04-20T01:12:26.529Z,9.80
2018-04-20T01:14:54.835Z,10.00
2018-04-20T01:17:23.894Z,9.83
2018-04-20T01:19:52.083Z,10.30
2018-04-20T01:22:21.162Z,9.93
2018-04-20T01:24:49.422Z,10.73
2018-04-20T01:27:17.619Z,10.10
2018-04-20T01:29:45.835Z,10.10
2018-04-20T01:32:16.504Z,10.53
2018-04-20T01:34:44.722Z,10.80
2018-04-20T01:37:13.696Z,10.50
2018-04-20T01:39:42.047Z,10.33
2018-04-20T01:42:10.207Z,11.70
2018-04-20T01:44:38.435Z,10.50
2018-04-20T01:47:07.451Z,10.93
2018-04-20T01:49:35.697Z,10.73
2018-04-20T01:52:04.700Z,10.93
2018-04-20T01:54:33.891Z,11.33
2018-04-20T01:57:02.950Z,11.53
2018-04-20T01:59:31.196Z,10.93
2018-04-20T02:01:59.414Z,10.80
2018-04-20T02:04:27.763Z,11.03
2018-04-20T02:06:56.031Z,10.70
2018-04-20T02:09:24.255Z,10.53
2018-04-20T02:11:52.450Z,10.80
2018-04-20T02:14:21.443Z,10.83
2018-04-20T02:16:50.618Z,11.20
2018-04-20T02:19:18.822Z,11.63
2018-04-20T02:21:47.887Z,10.80
2018-04-20T02:24:16.119Z,10.77
2018-04-20T02:26:44.363Z,11.67
2018-04-20T02:29:13.535Z,10.77
2018-04-20T02:31:41.769Z,11.43
2018-04-20T02:34:10.003Z,11.10
2018-04-20T02:36:39.186Z,11.17
2018-04-20T02:39:08.717Z,11.33
2018-04-20T02:41:37.707Z,11.33
2018-04-20T02:44:06.727Z,10.73
2018-04-20T02:46:35.759Z,11.40
2018-04-20T02:49:03.967Z,11.30
2018-04-20T02:51:32.935Z,11.37
2018-04-20T02:54:01.241Z,11.30
2018-04-20T02:56:30.233Z,12.00
2018-04-20T02:58:59.367Z,11.30
2018-04-20T03:01:28.943Z,11.70
2018-04-20T03:03:57.907Z,12.40
2018-04-20T03:06:27.339Z,12.40
2018-04-20T03:08:56.347Z,11.63
2018-04-20T03:11:24.571Z,12.13
2018-04-20T03:13:52.767Z,12.73
2018-04-20T03:16:21.216Z,12.87
2018-04-20T03:18:49.420Z,12.03
2018-04-20T03:21:17.753Z,13.97
2018-04-20T03:23:45.983Z,13.07
2018-04-20T03:26:14.951Z,12.47
2018-04-20T03:28:43.161Z,14.73
2018-04-20T03:31:12.133Z,13.10
2018-04-20T03:33:40.395Z,12.90
2018-04-20T03:36:08.599Z,14.07
2018-04-20T03:38:37.595Z,12.90
2018-04-20T03:41:06.565Z,13.07
2018-04-20T03:43:34.763Z,12.77
2018-04-20T03:46:03.755Z,13.17
2018-04-20T03:48:32.719Z,13.03
2018-04-20T03:51:00.978Z,13.80
2018-04-20T03:53:29.203Z,13.20
2018-04-20T03:55:57.421Z,14.60
2018-04-20T03:58:25.623Z,14.60
2018-04-20T04:00:53.858Z,14.40
2018-04-20T04:03:22.108Z,14.77
2018-04-20T04:05:50.322Z,15.13
2018-04-20T04:08:18.819Z,13.90
2018-04-20T04:10:47.084Z,13.87
2018-04-20T04:13:15.306Z,13.83
2018-04-20T04:15:44.300Z,13.60
2018-04-20T04:18:25.032Z,13.70
2018-04-20T04:20:59.963Z,13.43
2018-04-20T04:23:39.947Z,13.23
2018-04-20T04:26:21.042Z,13.00
2018-04-20T04:28:49.991Z,13.37
2018-04-20T04:31:18.274Z,12.93
2018-04-20T04:33:46.489Z,12.37
2018-04-20T04:36:14.728Z,12.80
2018-04-20T04:38:43.083Z,12.97
2018-04-20T04:41:11.327Z,12.67
2018-04-20T04:43:39.528Z,13.50
2018-04-20T04:46:07.763Z,13.60
2018-04-20T04:48:36.348Z,14.37
2018-04-20T04:51:04.563Z,12.93
2018-04-20T04:53:32.768Z,13.60
2018-04-20T04:56:00.987Z,13.90
2018-04-20T04:58:29.235Z,14.47
2018-04-20T05:00:58.197Z,14.70
2018-04-20T05:03:26.489Z,14.37
2018-04-20T05:05:54.745Z,14.73
2018-04-20T05:08:24.185Z,15.17
2018-04-20T05:10:53.219Z,14.63
2018-04-20T05:13:21.475Z,15.77
2018-04-20T05:18:20.436Z,15.73
2018-04-20T05:20:48.636Z,15.67
2018-04-20T05:23:17.772Z,14.90
2018-04-20T05:25:46.068Z,15.20
2018-04-20T05:28:14.263Z,16.03
2018-04-20T05:30:42.520Z,14.90
2018-04-20T05:33:10.954Z,15.03
2018-04-20T05:35:39.273Z,15.07
2018-04-20T05:38:07.519Z,15.33
2018-04-20T05:40:35.842Z,15.53
2018-04-20T05:43:04.083Z,15.13
2018-04-20T05:45:32.359Z,15.80
2018-04-20T05:48:00.592Z,15.73
2018-04-20T05:50:29.667Z,15.37
2018-04-20T05:52:57.957Z,14.53
2018-04-20T05:55:26.264Z,15.43
2018-04-20T05:57:55.407Z,15.53
2018-04-20T06:00:23.656Z,14.13
2018-04-20T06:02:51.868Z,15.23
2018-04-20T06:05:20.067Z,15.03
2018-04-20T06:07:49.113Z,14.87
2018-04-20T06:10:17.464Z,15.00
2018-04-20T06:12:45.667Z,15.17
2018-04-20T06:15:13.880Z,15.03
2018-04-20T06:17:42.226Z,15.30
2018-04-20T06:20:11.139Z,13.67
2018-04-20T06:22:39.415Z,13.97
2018-04-20T06:25:08.539Z,14.00
2018-04-20T06:27:37.611Z,13.20
2018-04-20T06:30:05.971Z,13.40
2018-04-20T06:32:34.271Z,13.30
2018-04-20T06:35:02.451Z,13.37
2018-04-20T06:37:31.436Z,12.60
2018-04-20T06:39:59.779Z,12.13
2018-04-20T06:42:28.013Z,12.30
2018-04-20T06:44:56.983Z,12.00
2018-04-20T06:47:25.246Z,11.60
2018-04-20T06:49:53.446Z,11.50
2018-04-20T06:52:22.469Z,11.73
2018-04-20T06:54:50.765Z,11.10
2018-04-20T06:57:18.971Z,11.43
2018-04-20T06:59:47.163Z,11.30
2018-04-20T07:02:16.214Z,11.10
2018-04-20T07:04:44.472Z,11.27
2018-04-20T07:07:12.767Z,11.50
2018-04-20T07:09:41.039Z,10.80
2018-04-20T07:12:09.280Z,10.40
2018-04-20T07:14:37.466Z,10.57
2018-04-20T07:17:05.704Z,9.60
2018-04-20T07:19:33.927Z,10.53
2018-04-20T07:22:02.157Z,10.00
2018-04-20T07:24:30.468Z,9.07
2018-04-20T07:26:58.663Z,10.07
2018-04-20T07:29:26.928Z,9.10
2018-04-20T07:31:55.198Z,7.90
2018-04-20T07:34:23.382Z,8.27
2018-04-20T07:36:51.643Z,8.40
2018-04-20T07:39:19.899Z,7.87
2018-04-20T07:41:48.860Z,7.30
2018-04-20T07:44:17.308Z,7.43
2018-04-20T07:46:45.604Z,6.93
2018-04-20T07:49:13.800Z,6.93
2018-04-20T07:51:42.019Z,6.13
2018-04-20T07:54:10.289Z,5.27
2018-04-20T07:56:38.503Z,6.27
2018-04-20T07:59:06.699Z,6.30
2018-04-20T08:01:34.927Z,5.10
2018-04-20T08:04:03.115Z,5.33
2018-04-20T08:06:31.366Z,4.90
2018-04-20T08:09:00.399Z,4.63
2018-04-20T08:11:28.587Z,4.97
2018-04-20T08:13:56.885Z,5.60
2018-04-20T08:16:25.135Z,4.00
2018-04-20T08:18:53.319Z,4.40
2018-04-20T08:21:21.515Z,4.57
2018-04-20T08:23:50.482Z,4.33
2018-04-20T08:26:18.744Z,4.70
2018-04-20T08:28:46.939Z,5.13
2018-04-20T08:31:15.307Z,4.90
2018-04-20T08:33:43.531Z,4.20
2018-04-20T08:36:11.720Z,5.37
2018-04-20T08:38:39.943Z,4.00
2018-04-20T08:41:08.157Z,4.40
2018-04-20T08:43:37.151Z,5.20
2018-04-20T08:46:05.373Z,4.20
2018-04-20T08:48:33.696Z,4.80
2018-04-20T08:51:02.697Z,4.27
2018-04-20T08:53:33.064Z,5.30
2018-04-20T08:56:01.252Z,5.77
2018-04-20T08:58:29.448Z,5.57
2018-04-20T09:00:57.792Z,5.10
2018-04-20T09:03:25.979Z,5.43
2018-04-20T09:05:54.172Z,5.80
2018-04-20T09:08:22.387Z,5.20
2018-04-20T09:10:51.409Z,5.90
2018-04-20T09:13:19.679Z,5.40
2018-04-20T09:15:48.906Z,5.90
2018-04-20T09:18:17.335Z,6.40
2018-04-20T09:20:45.572Z,5.00
2018-04-20T09:23:13.972Z,5.47
2018-04-20T09:25:42.155Z,5.00
2018-04-20T09:28:10.442Z,4.43
2018-04-20T09:30:38.692Z,4.07
2018-04-20T09:33:07.716Z,3.97
2018-04-20T09:35:36.000Z,4.70
2018-04-20T09:38:04.216Z,4.40
2018-04-20T09:40:32.411Z,4.10
2018-04-20T09:43:01.403Z,4.63
2018-04-20T09:45:30.477Z,4.67
2018-04-20T09:47:58.672Z,4.23
2018-04-20T09:50:27.639Z,3.73
2018-04-20T09:52:55.839Z,3.97
2018-04-20T09:55:24.796Z,3.97
2018-04-20T09:57:53.063Z,3.43
2018-04-20T10:00:21.306Z,4.03
2018-04-20T10:02:49.844Z,3.77
2018-04-20T10:05:23.955Z,4.20
2018-04-20T10:07:52.247Z,3.60
2018-04-20T10:10:20.496Z,4.20
2018-04-20T10:12:48.849Z,3.90
2018-04-20T10:15:17.651Z,3.80
2018-04-20T10:17:46.148Z,4.40
2018-04-20T10:20:15.188Z,3.77
2018-04-20T10:22:44.191Z,3.47
2018-04-20T10:25:12.375Z,3.80
2018-04-20T10:30:06.560Z,3.53
2018-04-20T10:32:35.526Z,3.60
2018-04-20T10:35:03.731Z,4.27
2018-04-20T10:37:32.851Z,3.40
2018-04-20T10:40:01.099Z,3.57
2018-04-20T10:42:30.206Z,3.90
2018-04-20T10:44:59.222Z,3.60
2018-04-20T10:47:27.437Z,3.60
2018-04-20T10:49:55.732Z,3.53
2018-04-20T10:52:23.991Z,3.10
2018-04-20T10:54:52.207Z,3.30
2018-04-20T10:57:20.399Z,3.13
2018-04-20T10:59:48.627Z,3.93
2018-04-20T11:02:16.823Z,3.63
2018-04-20T11:04:45.878Z,3.23
2018-04-20T11:07:14.243Z,2.87
2018-04-20T11:09:42.464Z,2.80
2018-04-20T11:12:11.492Z,2.80
2018-04-20T11:14:42.320Z,2.60
2018-04-20T11:17:10.516Z,2.60
2018-04-20T11:19:38.829Z,2.87
2018-04-20T11:22:07.047Z,2.70
2018-04-20T11:24:35.296Z,2.20
2018-04-20T11:27:04.310Z,2.23
2018-04-20T11:29:32.501Z,2.70
2018-04-20T11:32:00.703Z,2.60
2018-04-20T11:34:29.055Z,3.10
2018-04-20T11:36:57.328Z,2.70
2018-04-20T11:39:25.641Z,2.53
2018-04-20T11:41:53.963Z,3.00
2018-04-20T11:44:22.167Z,2.60
2018-04-20T11:46:50.395Z,3.00
2018-04-20T11:49:19.399Z,2.73
2018-04-20T11:51:48.359Z,2.63
2018-04-20T11:54:16.548Z,2.53
2018-04-20T11:56:45.595Z,2.40
2018-04-20T11:59:13.908Z,2.67
2018-04-20T12:01:42.121Z,2.63
2018-04-20T12:04:10.395Z,2.50
2018-04-20T12:06:38.587Z,2.53
2018-04-20T12:09:06.892Z,2.50
2018-04-20T12:11:35.224Z,2.83
2018-04-20T12:14:03.472Z,2.60
2018-04-20T12:16:31.796Z,2.97
2018-04-20T12:19:01.390Z,2.80
2018-04-20T12:21:29.761Z,2.70
2018-04-20T12:23:58.918Z,2.73
2018-04-20T12:26:28.895Z,2.83
2018-04-20T12:28:57.840Z,2.50
2018-04-20T12:31:26.048Z,2.60
2018-04-20T12:33:55.095Z,2.70
2018-04-20T12:36:23.479Z,3.30
2018-04-20T12:38:51.702Z,2.50
2018-04-20T12:41:19.988Z,2.40
2018-04-20T12:43:48.322Z,2.50
2018-04-20T12:46:16.512Z,2.87
2018-04-20T12:48:45.515Z,3.00
2018-04-20T12:51:13.789Z,2.50
2018-04-20T12:53:41.912Z,2.50
2018-04-20T12:56:10.178Z,2.50
2018-04-20T12:58:39.307Z,2.83
2018-04-20T13:01:07.719Z,2.80
2018-04-20T13:03:35.947Z,2.43
2018-04-20T13:06:04.905Z,2.70
2018-04-20T13:08:33.567Z,2.30
2018-04-20T13:11:01.719Z,2.53
2018-04-20T13:13:29.905Z,2.40
2018-04-20T13:15:59.058Z,2.53
2018-04-20T13:18:28.113Z,2.20
2018-04-20T13:20:56.266Z,2.53
2018-04-20T13:23:25.239Z,1.93
2018-04-20T13:25:53.427Z,1.80
2018-04-20T13:28:22.406Z,1.90
2018-04-20T13:30:50.655Z,1.70
2018-04-20T13:33:18.849Z,1.90
2018-04-20T13:35:47.526Z,2.00
2018-04-20T13:38:15.794Z,2.23
2018-04-20T13:40:43.991Z,1.93
2018-04-20T13:43:12.195Z,1.90
2018-04-20T13:45:41.276Z,1.80
2018-04-20T13:48:09.467Z,2.13
2018-04-20T13:50:37.631Z,1.90
2018-04-20T13:53:06.199Z,1.83
2018-04-20T13:55:34.467Z,1.87
2018-04-20T13:58:02.739Z,1.90
2018-04-20T14:00:30.991Z,1.83
2018-04-20T14:03:00.227Z,1.57
2018-04-20T14:05:29.236Z,2.20
2018-04-20T14:07:57.503Z,1.80
2018-04-20T14:10:25.827Z,1.53
2018-04-20T14:12:54.808Z,1.70
2018-04-20T14:15:23.060Z,1.73
2018-04-20T14:17:51.287Z,1.50
2018-04-20T14:20:19.677Z,1.90
2018-04-20T14:22:47.904Z,1.90
2018-04-20T14:25:16.171Z,2.17
2018-04-20T14:27:44.444Z,1.47
2018-04-20T14:30:12.642Z,1.43
2018-04-20T14:32:41.167Z,1.70
2018-04-20T14:35:09.399Z,1.40
2018-04-20T14:37:37.595Z,1.80
2018-04-20T14:40:06.611Z,1.80
2018-04-20T14:42:34.821Z,2.40
2018-04-20T14:45:03.063Z,1.87
2018-04-20T14:47:31.293Z,1.90
2018-04-20T14:49:59.588Z,1.80
2018-04-20T14:52:28.586Z,1.70
2018-04-20T14:54:58.901Z,1.80
2018-04-20T14:57:27.902Z,1.90
2018-04-20T14:59:56.923Z,2.17
2018-04-20T15:02:25.319Z,2.50
2018-04-20T15:04:53.524Z,2.10
2018-04-20T15:07:22.480Z,1.80
2018-04-20T15:09:50.723Z,1.97
2018-04-20T15:12:18.958Z,2.00
2018-04-20T15:14:47.157Z,2.07
2018-04-20T15:17:16.236Z,2.67
2018-04-20T15:19:44.472Z,2.47
2018-04-20T15:22:12.717Z,2.30
2018-04-20T15:24:41.800Z,1.90
2018-04-20T15:27:09.972Z,2.13
2018-04-20T15:29:38.162Z,2.00
2018-04-20T15:32:07.167Z,2.03
2018-04-20T15:34:35.635Z,2.10
2018-04-20T15:37:04.675Z,2.10
2018-04-20T15:39:32.935Z,2.20
2018-04-20T15:42:01.228Z,1.90
2018-04-20T15:44:29.447Z,2.27
2018-04-20T15:46:58.491Z,2.33
2018-04-20T15:49:26.914Z,2.33
2018-04-20T15:51:55.251Z,2.43
2018-04-20T15:54:23.495Z,2.33
2018-04-20T15:56:51.687Z,2.03
2018-04-20T15:59:19.932Z,2.07
2018-04-20T16:01:52.675Z,2.27
2018-04-20T16:04:20.884Z,2.10
2018-04-20T16:06:49.884Z,2.33
2018-04-20T16:09:19.024Z,2.40
2018-04-20T16:11:47.236Z,2.30
2018-04-20T16:14:15.581Z,2.03
2018-04-20T16:16:44.851Z,2.37
2018-04-20T16:19:13.092Z,2.23
2018-04-20T16:21:41.307Z,2.50
2018-04-20T16:24:09.538Z,2.70
2018-04-20T16:26:37.775Z,2.03
2018-04-20T16:29:05.987Z,2.03
2018-04-20T16:31:34.366Z,2.40
2018-04-20T16:34:02.607Z,2.70
2018-04-20T16:36:30.999Z,2.60
2018-04-20T16:38:59.314Z,2.53
2018-04-20T16:41:27.484Z,2.20
2018-04-20T16:43:56.479Z,2.60
2018-04-20T16:46:25.670Z,2.33
2018-04-20T16:48:54.988Z,2.30
2018-04-20T16:51:23.991Z,2.57
2018-04-20T16:53:52.303Z,2.97
2018-04-20T16:56:20.503Z,2.57
2018-04-20T16:58:48.743Z,2.60
2018-04-20T17:01:17.096Z,2.53
2018-04-20T17:03:45.359Z,2.43
2018-04-20T17:06:14.435Z,3.10
2018-04-20T17:08:42.847Z,2.77
2018-04-20T17:11:11.035Z,3.00
2018-04-20T17:13:39.235Z,3.03
2018-04-20T17:16:07.488Z,2.63
2018-04-20T17:18:35.767Z,2.60
2018-04-20T17:21:04.009Z,2.73
2018-04-20T17:23:32.369Z,2.80
2018-04-20T17:26:00.625Z,3.17
2018-04-20T17:28:31.355Z,3.20
2018-04-20T17:31:00.396Z,2.87
